Time;durP1;ratioP1;P1;durP2;ratioP2;P2;SDS_P1;SDS_P2;PMS_P1;PMS_P2;Temp;Humidity;BMP_temperature;BMP_pressure;BME280_temperature;BME280_humidity;BME280_pressure;Samples;Min_cycle;Max_cycle;Signal;HPM_P1;HPM_P2
2023/02/24 00:02:45;;;;;;;10.98;7.75;;;19.20;53.90;;;;;;6269852;28;20474;-69
2023/02/24 00:05:48;;;;;;;10.70;7.72;;;19.20;53.90;;;;;;6272746;28;20113;-69
2023/02/24 00:08:50;;;;;;;10.35;7.78;;;19.20;54.00;;;;;;6247270;28;20486;-69
2023/02/24 00:12:01;;;;;;;10.98;7.90;;;19.20;54.60;;;;;;6256027;28;20079;-69
2023/02/24 00:15:02;;;;;;;10.75;7.53;;;19.20;54.00;;;;;;6272128;28;20511;-69
2023/02/24 00:18:05;;;;;;;9.73;6.93;;;19.20;54.00;;;;;;6270997;28;20025;-69
2023/02/24 00:21:14;;;;;;;11.57;8.15;;;19.20;54.00;;;;;;6270521;28;20064;-69
2023/02/24 00:24:15;;;;;;;10.88;7.85;;;19.20;54.00;;;;;;6272393;28;20572;-68
2023/02/24 00:27:16;;;;;;;10.00;7.63;;;19.20;54.00;;;;;;6270156;28;20031;-67
2023/02/24 00:30:20;;;;;;;10.40;7.70;;;19.20;54.00;;;;;;6271462;28;20025;-68
2023/02/24 00:33:23;;;;;;;10.00;7.50;;;19.20;54.00;;;;;;6271757;28;20021;-68
2023/02/24 00:36:25;;;;;;;10.45;7.38;;;19.20;54.00;;;;;;6271391;28;20477;-67
2023/02/24 00:39:31;;;;;;;9.90;7.07;;;19.20;54.00;;;;;;6270378;28;20044;-68
2023/02/24 00:42:33;;;;;;;10.35;7.43;;;19.20;54.00;;;;;;6270768;28;20078;-68
2023/02/24 00:45:40;;;;;;;10.10;7.38;;;19.20;54.00;;;;;;6271672;28;20075;-67
2023/02/24 00:48:40;;;;;;;9.63;7.30;;;19.20;54.00;;;;;;6271632;28;20060;-67
2023/02/24 00:51:43;;;;;;;10.70;7.75;;;19.20;54.10;;;;;;6272937;28;20025;-66
2023/02/24 00:54:46;;;;;;;11.25;7.30;;;19.20;54.00;;;;;;6272753;28;20028;-66
2023/02/24 00:57:49;;;;;;;10.23;7.85;;;19.20;54.10;;;;;;6271726;28;20090;-66
2023/02/24 01:00:51;;;;;;;9.73;7.07;;;19.20;54.10;;;;;;6272400;28;20390;-66
2023/02/24 01:03:55;;;;;;;11.13;7.55;;;19.20;54.10;;;;;;6272441;28;20048;-66
2023/02/24 01:06:58;;;;;;;9.75;7.30;;;19.20;54.10;;;;;;6272431;28;20049;-66
2023/02/24 01:09:59;;;;;;;10.00;7.00;;;19.20;54.10;;;;;;6272151;28;20013;-66
2023/02/24 01:13:00;;;;;;;10.65;7.50;;;19.20;54.10;;;;;;6272509;28;20036;-66
2023/02/24 01:16:01;;;;;;;10.02;7.43;;;19.20;54.10;;;;;;6272379;28;20382;-66
2023/02/24 01:19:04;;;;;;;9.82;7.40;;;19.20;54.70;;;;;;6271891;28;20506;-66
2023/02/24 01:22:08;;;;;;;10.93;7.40;;;19.20;54.10;;;;;;6271550;28;20482;-66
2023/02/24 01:25:10;;;;;;;9.53;7.13;;;19.20;54.10;;;;;;6272172;28;20488;-66
2023/02/24 01:28:10;;;;;;;9.65;6.90;;;19.20;54.10;;;;;;6271868;28;20036;-66
2023/02/24 01:31:11;;;;;;;8.30;6.35;;;19.20;54.10;;;;;;6270891;28;20068;-66
2023/02/24 01:34:12;;;;;;;8.30;6.43;;;19.20;54.10;;;;;;6271823;28;20056;-66
2023/02/24 01:37:15;;;;;;;10.60;6.80;;;19.20;54.10;;;;;;6272075;28;20035;-66
2023/02/24 01:40:19;;;;;;;10.30;7.00;;;19.20;54.10;;;;;;6271702;28;20366;-66
2023/02/24 01:43:20;;;;;;;8.82;6.65;;;19.20;54.10;;;;;;6271988;28;20685;-66
2023/02/24 01:46:22;;;;;;;9.35;6.88;;;19.20;54.10;;;;;;6271774;28;20032;-66
2023/02/24 01:49:37;;;;;;;8.13;6.63;;;19.20;54.10;;;;;;6270371;28;20494;-66
2023/02/24 01:52:37;;;;;;;10.27;7.38;;;19.20;54.10;;;;;;6271560;28;20028;-66
2023/02/24 01:55:48;;;;;;;9.25;6.43;;;19.20;54.10;;;;;;6271309;28;20037;-66
2023/02/24 01:58:49;;;;;;;9.77;6.78;;;19.20;54.10;;;;;;6271952;28;20039;-66
2023/02/24 02:01:54;;;;;;;8.98;6.70;;;19.20;54.10;;;;;;6269957;28;20036;-66
2023/02/24 02:05:00;;;;;;;9.30;6.97;;;19.20;54.10;;;;;;6271289;28;20021;-66
2023/02/24 02:08:02;;;;;;;10.27;7.45;;;19.20;54.10;;;;;;6271295;28;20104;-67
2023/02/24 02:11:07;;;;;;;8.55;6.57;;;19.20;54.10;;;;;;6271664;28;20115;-66
2023/02/24 02:14:08;;;;;;;9.80;6.97;;;19.20;54.10;;;;;;6271707;28;20071;-66
2023/02/24 02:17:46;;;;;;;9.00;6.95;;;19.20;54.20;;;;;;6271385;28;20020;-66
2023/02/24 02:20:52;;;;;;;9.60;7.22;;;19.20;54.10;;;;;;6271204;28;20106;-66
2023/02/24 02:24:20;;;;;;;9.30;6.95;;;19.20;54.10;;;;;;6269562;28;20033;-66
2023/02/24 02:27:52;;;;;;;8.63;6.53;;;19.20;54.10;;;;;;6271000;28;20389;-65
2023/02/24 02:31:24;;;;;;;9.73;6.70;;;19.20;54.10;;;;;;6269708;28;20041;-66
2023/02/24 02:34:39;;;;;;;9.85;7.25;;;19.20;54.10;;;;;;6270097;28;20100;-66
2023/02/24 02:38:07;;;;;;;8.95;6.60;;;19.20;54.20;;;;;;6270475;28;20056;-66
2023/02/24 02:41:11;;;;;;;8.40;6.60;;;19.20;54.20;;;;;;6269037;28;20592;-66
2023/02/24 02:44:38;;;;;;;8.93;6.45;;;19.10;54.10;;;;;;6270400;28;20035;-66
2023/02/24 02:47:42;;;;;;;8.50;6.50;;;19.10;54.10;;;;;;6269647;28;20033;-66
2023/02/24 02:50:56;;;;;;;8.93;6.75;;;19.20;54.20;;;;;;6268933;28;20123;-66
2023/02/24 02:54:25;;;;;;;7.53;5.63;;;19.20;54.10;;;;;;6270343;28;20029;-66
2023/02/24 02:57:31;;;;;;;9.98;6.88;;;19.20;54.20;;;;;;6269996;28;20104;-66
2023/02/24 03:00:34;;;;;;;;;;;19.20;54.10;;;;;;6268983;28;20028;-67
2023/02/24 03:03:43;;;;;;;9.98;7.35;;;19.20;54.20;;;;;;6267681;28;19916;-66
2023/02/24 03:06:51;;;;;;;8.35;6.10;;;19.10;54.10;;;;;;6269191;28;20093;-66
2023/02/24 03:09:58;;;;;;;8.00;6.25;;;19.20;54.20;;;;;;6268699;28;20025;-67
2023/02/24 03:13:02;;;;;;;8.05;6.30;;;19.20;54.10;;;;;;6267547;28;20036;-66
2023/02/24 03:16:03;;;;;;;8.65;6.20;;;19.20;54.10;;;;;;6268858;28;20029;-66
2023/02/24 03:19:09;;;;;;;8.75;6.18;;;19.20;54.20;;;;;;6268758;28;20522;-66
2023/02/24 03:22:33;;;;;;;8.75;6.10;;;19.10;54.10;;;;;;6267335;28;20044;-66
2023/02/24 03:25:45;;;;;;;8.13;6.07;;;19.10;54.10;;;;;;6268942;28;20028;-67
2023/02/24 03:29:09;;;;;;;9.77;6.60;;;19.20;54.10;;;;;;6267642;28;20070;-66
2023/02/24 03:32:16;;;;;;;9.68;6.45;;;19.10;54.10;;;;;;6244415;28;20101;-67
2023/02/24 03:35:26;;;;;;;8.55;5.97;;;19.20;54.20;;;;;;6244281;28;20025;-67
2023/02/24 03:38:29;;;;;;;9.05;6.35;;;19.20;54.20;;;;;;6243504;28;20053;-67
2023/02/24 03:42:00;;;;;;;8.38;6.10;;;19.10;54.10;;;;;;6244387;28;20091;-66
2023/02/24 03:45:01;;;;;;;8.40;6.15;;;19.20;54.10;;;;;;6247912;28;20025;-67
2023/02/24 03:48:06;;;;;;;8.98;6.20;;;19.10;54.10;;;;;;6268694;28;20398;-67
2023/02/24 03:51:14;;;;;;;11.23;6.20;;;19.20;54.20;;;;;;6268757;28;20541;-66
2023/02/24 03:54:57;;;;;;;8.20;6.05;;;19.20;54.10;;;;;;6267438;28;20029;-67
2023/02/24 03:58:17;;;;;;;7.22;5.60;;;19.10;54.10;;;;;;6268403;28;20040;-67
2023/02/24 04:01:30;;;;;;;7.75;5.47;;;19.10;54.10;;;;;;6268807;28;20025;-67
2023/02/24 04:04:42;;;;;;;10.07;6.47;;;19.20;54.10;;;;;;6268479;28;20021;-66
2023/02/24 04:07:56;;;;;;;7.72;5.60;;;19.10;54.10;;;;;;6268356;28;20025;-67
2023/02/24 04:11:09;;;;;;;8.50;6.18;;;19.20;54.20;;;;;;6268390;28;20372;-67
2023/02/24 04:14:33;;;;;;;8.15;5.70;;;19.10;54.10;;;;;;6268332;28;20327;-67
2023/02/24 04:18:00;;;;;;;8.00;5.85;;;19.20;54.10;;;;;;6268411;28;20077;-67
2023/02/24 04:21:03;;;;;;;7.97;5.43;;;19.20;54.20;;;;;;6268278;28;20103;-66
2023/02/24 04:24:10;;;;;;;8.02;5.78;;;19.20;54.10;;;;;;6268418;28;20044;-67
2023/02/24 04:27:14;;;;;;;8.07;5.55;;;19.10;54.10;;;;;;6268013;28;20017;-66
2023/02/24 04:30:15;;;;;;;8.85;5.55;;;19.20;54.10;;;;;;6268555;28;20017;-67
2023/02/24 04:33:17;;;;;;;8.60;5.53;;;19.10;54.10;;;;;;6268231;28;20021;-67
2023/02/24 04:36:19;;;;;;;8.57;5.45;;;19.20;54.10;;;;;;6268319;28;20483;-69
2023/02/24 04:39:22;;;;;;;7.72;5.28;;;19.20;54.10;;;;;;6266120;28;20079;-66
2023/02/24 04:42:23;;;;;;;7.80;5.20;;;19.10;54.10;;;;;;6268195;28;20056;-66
2023/02/24 04:45:27;;;;;;;7.15;5.35;;;19.20;54.10;;;;;;6267834;28;20029;-67
2023/02/24 04:48:29;;;;;;;7.97;5.40;;;19.10;54.10;;;;;;6269402;28;20013;-66
2023/02/24 04:51:31;;;;;;;7.85;5.65;;;19.10;54.10;;;;;;6271347;28;20021;-66
2023/02/24 04:54:33;;;;;;;8.48;5.55;;;19.10;54.10;;;;;;6271130;28;20028;-66
2023/02/24 04:57:36;;;;;;;5.82;4.50;;;19.10;54.10;;;;;;6271092;28;20103;-67
2023/02/24 05:00:40;;;;;;;7.75;5.25;;;19.10;54.10;;;;;;6270826;28;20669;-66
2023/02/24 05:03:42;;;;;;;9.02;5.97;;;19.10;54.10;;;;;;6272445;28;20075;-71
2023/02/24 05:06:43;;;;;;;7.97;5.57;;;19.20;54.10;;;;;;6272857;28;20028;-70
2023/02/24 05:09:47;;;;;;;8.32;5.25;;;19.20;54.10;;;;;;6271884;28;20045;-70
2023/02/24 05:12:48;;;;;;;6.57;5.00;;;19.10;54.10;;;;;;6259736;28;20021;-70
2023/02/24 05:15:48;;;;;;;6.07;4.50;;;19.20;54.10;;;;;;6247312;28;20057;-67
2023/02/24 05:18:49;;;;;;;7.25;5.30;;;19.10;54.00;;;;;;6246908;28;20238;-66
2023/02/24 05:21:50;;;;;;;6.82;5.45;;;19.20;54.10;;;;;;6247136;28;20037;-67
2023/02/24 05:24:51;;;;;;;7.63;5.03;;;19.20;54.10;;;;;;6253375;28;20454;-67
2023/02/24 05:27:51;;;;;;;7.53;5.20;;;19.20;54.10;;;;;;6271494;28;20020;-67
2023/02/24 05:30:54;;;;;;;6.72;4.68;;;19.20;54.10;;;;;;6271198;28;20030;-67
2023/02/24 05:34:01;;;;;;;6.82;4.68;;;19.20;54.10;;;;;;6271730;28;20429;-67
2023/02/24 05:37:08;;;;;;;6.03;4.63;;;19.20;54.10;;;;;;6271509;28;20042;-66
2023/02/24 05:40:12;;;;;;;6.85;4.80;;;19.20;54.10;;;;;;6270794;28;20355;-66
2023/02/24 05:43:17;;;;;;;6.30;4.72;;;19.10;54.00;;;;;;6271231;28;20021;-67
2023/02/24 05:46:18;;;;;;;;;;;19.10;54.10;;;;;;6271510;28;20010;-67
2023/02/24 05:49:22;;;;;;;6.15;4.47;;;19.20;54.10;;;;;;6269475;28;20269;-66
2023/02/24 05:52:22;;;;;;;6.32;4.85;;;19.10;54.00;;;;;;6269812;28;20083;-67
2023/02/24 05:55:23;;;;;;;6.80;4.97;;;19.20;54.10;;;;;;6271079;28;20469;-66
2023/02/24 05:58:27;;;;;;;7.22;4.97;;;19.20;54.10;;;;;;6270772;28;20044;-66
2023/02/24 06:01:33;;;;;;;5.77;4.60;;;19.20;54.20;;;;;;6262857;28;20036;-67
2023/02/24 06:04:39;;;;;;;5.82;4.53;;;19.10;54.10;;;;;;6246216;28;20456;-67
2023/02/24 06:07:42;;;;;;;8.07;5.00;;;19.20;54.10;;;;;;6246156;28;20041;-67
2023/02/24 06:10:45;;;;;;;8.50;5.22;;;19.20;54.10;;;;;;6245824;28;20386;-66
2023/02/24 06:13:47;;;;;;;5.78;4.60;;;19.20;54.20;;;;;;6244698;28;20055;-67
2023/02/24 06:16:49;;;;;;;6.10;4.55;;;19.20;54.10;;;;;;6246172;28;20102;-67
2023/02/24 06:19:52;;;;;;;6.47;4.65;;;19.10;54.10;;;;;;6267932;28;20543;-66
2023/02/24 06:22:56;;;;;;;6.05;4.32;;;19.20;54.10;;;;;;6260775;28;21237;-67
2023/02/24 06:26:02;;;;;;;5.97;4.43;;;19.20;54.20;;;;;;6268376;28;20033;-67
2023/02/24 06:29:04;;;;;;;5.03;3.95;;;19.20;54.10;;;;;;6271712;28;20148;-67
2023/02/24 06:32:07;;;;;;;5.45;4.30;;;19.20;54.10;;;;;;6269153;28;20104;-67
2023/02/24 06:35:09;;;;;;;6.47;4.45;;;19.10;54.10;;;;;;6267274;28;20032;-67
2023/02/24 06:38:10;;;;;;;7.28;4.88;;;19.20;54.10;;;;;;6268777;28;20021;-67
2023/02/24 06:41:11;;;;;;;5.90;4.22;;;19.20;54.10;;;;;;6267627;28;20139;-67
2023/02/24 06:44:12;;;;;;;5.53;4.15;;;19.20;54.20;;;;;;6269437;28;20032;-67
2023/02/24 06:47:16;;;;;;;4.82;3.63;;;19.20;54.10;;;;;;6293977;28;20016;-67
2023/02/24 06:50:22;;;;;;;6.70;4.55;;;19.20;54.10;;;;;;6293363;28;20045;-67
2023/02/24 06:53:25;;;;;;;7.20;4.47;;;19.20;54.10;;;;;;6277484;28;20465;-67
2023/02/24 06:56:27;;;;;;;7.15;4.60;;;19.30;54.20;;;;;;6268557;28;20029;-67
2023/02/24 06:59:28;;;;;;;6.75;4.35;;;19.20;53.90;;;;;;6268459;28;20026;-67
2023/02/24 07:02:38;;;;;;;6.97;4.35;;;19.30;54.00;;;;;;6293945;28;20027;-67
2023/02/24 07:05:41;;;;;;;7.43;4.25;;;19.30;54.00;;;;;;6281667;28;20021;-67
2023/02/24 07:08:42;;;;;;;11.05;4.35;;;19.30;54.00;;;;;;6295625;28;20051;-67
2023/02/24 07:11:46;;;;;;;11.85;4.88;;;19.30;54.10;;;;;;6291095;28;20027;-67
2023/02/24 07:14:49;;;;;;;10.52;4.00;;;19.20;54.10;;;;;;6270395;28;20018;-67
2023/02/24 07:17:53;;;;;;;6.38;4.38;;;19.20;54.10;;;;;;6266260;28;20029;-67
2023/02/24 07:20:53;;;;;;;6.70;4.30;;;19.20;54.10;;;;;;6281434;28;20143;-66
2023/02/24 07:23:58;;;;;;;8.85;3.97;;;19.20;54.10;;;;;;6274970;28;20110;-67
2023/02/24 07:27:03;;;;;;;11.70;4.70;;;19.20;54.10;;;;;;6270729;28;20021;-67
2023/02/24 07:30:08;;;;;;;15.05;5.97;;;19.20;54.10;;;;;;6269503;28;20490;-67
2023/02/24 07:33:09;;;;;;;9.50;4.93;;;19.20;54.00;;;;;;6270539;28;20062;-67
2023/02/24 07:36:13;;;;;;;8.82;4.53;;;19.20;54.10;;;;;;6269511;28;20033;-67
2023/02/24 07:39:16;;;;;;;6.28;3.58;;;19.20;54.10;;;;;;6270389;28;20021;-67
2023/02/24 07:42:16;;;;;;;10.13;4.80;;;19.20;54.10;;;;;;6270574;28;20140;-67
2023/02/24 07:45:17;;;;;;;8.80;5.00;;;19.20;54.10;;;;;;6268903;28;20523;-67
2023/02/24 07:48:18;;;;;;;8.00;4.65;;;19.20;54.10;;;;;;6270703;28;20100;-67
2023/02/24 07:51:22;;;;;;;13.02;5.40;;;19.20;54.10;;;;;;6270373;28;20017;-67
2023/02/24 07:54:24;;;;;;;9.27;5.32;;;19.20;54.10;;;;;;6270509;28;20498;-67
2023/02/24 07:57:25;;;;;;;11.18;5.78;;;19.20;54.10;;;;;;6270409;28;20454;-67
2023/02/24 08:00:27;;;;;;;8.57;4.75;;;19.20;54.10;;;;;;6269160;28;20037;-67
2023/02/24 08:03:28;;;;;;;10.07;5.55;;;19.20;54.10;;;;;;6270073;28;20056;-67
2023/02/24 08:06:36;;;;;;;10.65;5.40;;;19.20;54.10;;;;;;6270048;28;20013;-67
2023/02/24 08:12:44;;;;;;;11.93;5.45;;;19.20;54.00;;;;;;6257453;28;20021;-67
2023/02/24 08:15:54;;;;;;;11.20;6.10;;;19.20;54.00;;;;;;6270334;28;20390;-67
2023/02/24 08:18:56;;;;;;;7.22;4.45;;;19.20;54.00;;;;;;6269993;28;20082;-67
2023/02/24 08:22:18;;;;;;;13.63;5.32;;;19.20;54.00;;;;;;6270376;28;20051;-67
2023/02/24 08:25:37;;;;;;;9.30;5.60;;;19.20;54.00;;;;;;6274795;28;20392;-67
2023/02/24 08:28:40;;;;;;;8.13;4.88;;;19.20;54.00;;;;;;6274923;28;20021;-67
2023/02/24 08:31:41;;;;;;;8.93;5.10;;;19.20;53.90;;;;;;6274778;28;20024;-67
2023/02/24 08:34:43;;;;;;;9.88;5.32;;;19.20;53.90;;;;;;6273592;28;20025;-67
2023/02/24 08:37:50;;;;;;;7.95;4.88;;;19.20;53.90;;;;;;6274317;28;20028;-67
2023/02/24 08:40:54;;;;;;;9.23;4.82;;;19.20;53.90;;;;;;6274127;28;20025;-68
2023/02/24 08:43:55;;;;;;;9.18;4.60;;;19.20;53.90;;;;;;6274387;28;20021;-67
2023/02/24 08:46:55;;;;;;;9.40;5.18;;;19.20;53.80;;;;;;6268764;28;20071;-67
2023/02/24 08:49:58;;;;;;;9.07;5.05;;;19.20;53.80;;;;;;6252224;28;20160;-67
2023/02/24 08:53:02;;;;;;;10.27;5.10;;;19.20;53.80;;;;;;6266587;28;20075;-67
2023/02/24 08:56:08;;;;;;;8.73;4.97;;;19.20;53.90;;;;;;6261846;28;20021;-67
2023/02/24 08:59:27;;;;;;;9.50;5.75;;;19.20;53.90;;;;;;6274743;28;20017;-67
2023/02/24 09:02:28;;;;;;;9.23;4.95;;;19.20;53.80;;;;;;6273534;28;20028;-67
2023/02/24 09:05:32;;;;;;;8.02;4.60;;;19.20;53.80;;;;;;6286612;28;20422;-67
2023/02/24 09:08:37;;;;;;;9.30;4.80;;;19.20;53.80;;;;;;6273376;28;20049;-67
2023/02/24 09:11:42;;;;;;;8.15;4.55;;;19.20;53.80;;;;;;6270451;28;20101;-67
2023/02/24 09:14:43;;;;;;;10.23;4.60;;;19.20;53.80;;;;;;6275743;28;20436;-67
2023/02/24 09:21:14;;;;;;;8.43;4.40;;;19.20;53.70;;;;;;6290680;28;20049;-67
2023/02/24 09:24:26;;;;;;;8.93;4.82;;;19.20;53.70;;;;;;6273161;28;20441;-67
2023/02/24 09:27:28;;;;;;;10.40;4.78;;;19.20;53.70;;;;;;6260071;28;20029;-67
2023/02/24 09:30:34;;;;;;;7.60;4.30;;;19.20;53.70;;;;;;6267835;28;20017;-67
2023/02/24 09:33:40;;;;;;;6.93;3.88;;;19.20;53.70;;;;;;6256384;28;20025;-67
2023/02/24 09:37:00;;;;;;;8.35;4.88;;;19.20;53.60;;;;;;6264818;28;20033;-66
2023/02/24 09:43:29;;;;;;;8.32;4.38;;;19.20;53.60;;;;;;6262551;28;20036;-67
2023/02/24 09:46:36;;;;;;;7.35;4.00;;;19.20;54.30;;;;;;6246216;28;20025;-67
2023/02/24 09:49:55;;;;;;;7.72;3.75;;;19.20;53.60;;;;;;6245083;28;20515;-67
2023/02/24 09:53:16;;;;;;;7.97;4.28;;;19.20;53.60;;;;;;6285406;28;20036;-67
2023/02/24 09:56:26;;;;;;;7.50;4.45;;;19.20;53.70;;;;;;6292613;28;20036;-66
2023/02/24 10:00:23;;;;;;;8.57;4.18;;;19.20;53.60;;;;;;6296881;28;20021;-67
2023/02/24 10:03:41;;;;;;;7.93;4.25;;;19.20;53.60;;;;;;6296851;28;20039;-67
2023/02/24 10:06:45;;;;;;;7.22;3.92;;;19.20;53.60;;;;;;6271060;28;20032;-67
2023/02/24 10:10:00;;;;;;;8.20;3.88;;;19.20;53.60;;;;;;6278830;28;20024;-67
2023/02/24 10:13:29;;;;;;;6.25;3.90;;;19.20;53.60;;;;;;6282245;28;20033;-67
2023/02/24 10:16:40;;;;;;;6.00;3.72;;;19.20;53.60;;;;;;6256288;28;20136;-66
2023/02/24 10:19:41;;;;;;;5.45;3.33;;;19.20;53.60;;;;;;6250498;28;20053;-67
2023/02/24 10:22:49;;;;;;;5.38;3.33;;;19.20;53.60;;;;;;6259513;28;20036;-67
2023/02/24 10:26:06;;;;;;;8.50;4.03;;;19.20;53.60;;;;;;6278077;28;20445;-67
2023/02/24 10:29:28;;;;;;;6.07;3.58;;;19.20;53.50;;;;;;6270540;28;20553;-67
2023/02/24 10:32:46;;;;;;;6.85;4.10;;;19.20;53.60;;;;;;6271118;28;20100;-67
2023/02/24 10:35:49;;;;;;;6.60;4.00;;;19.20;53.60;;;;;;6270946;28;20518;-67
2023/02/24 10:38:54;;;;;;;6.18;3.75;;;19.20;53.60;;;;;;6271535;28;20577;-67
2023/02/24 10:42:14;;;;;;;4.72;2.85;;;19.20;53.60;;;;;;6287296;28;20472;-67
2023/02/24 10:45:25;;;;;;;6.57;3.60;;;19.20;53.60;;;;;;6295298;28;20052;-67
2023/02/24 10:48:26;;;;;;;5.40;3.25;;;19.20;53.60;;;;;;6273144;28;20405;-66
2023/02/24 10:51:44;;;;;;;7.10;3.55;;;19.20;53.60;;;;;;6270546;28;20036;-67
2023/02/24 10:55:04;;;;;;;5.05;2.83;;;19.20;53.60;;;;;;6269790;28;20078;-67
2023/02/24 10:58:06;;;;;;;5.50;3.40;;;19.20;53.60;;;;;;6293306;28;20032;-66
2023/02/24 11:01:42;;;;;;;5.18;3.10;;;19.20;53.60;;;;;;6270562;28;20024;-67
2023/02/24 11:04:52;;;;;;;;;;;19.20;53.60;;;;;;6246540;28;20538;-67
2023/02/24 11:08:25;;;;;;;6.22;3.17;;;19.20;53.60;;;;;;6288438;28;19908;-67
2023/02/24 11:17:13;;;;;;;5.22;3.13;;;19.20;53.60;;;;;;6285536;28;20025;-67
2023/02/24 11:18:26;;;;;;;4.85;3.20;;;19.20;53.60;;;;;;6279960;28;20406;-68
2023/02/24 11:21:27;;;;;;;5.53;3.42;;;19.20;53.60;;;;;;6276735;28;20048;-67
2023/02/24 11:24:29;;;;;;;4.78;3.03;;;19.20;53.60;;;;;;6269345;28;20589;-68
2023/02/24 11:27:31;;;;;;;5.13;3.03;;;19.20;53.60;;;;;;6273111;28;20041;-68
2023/02/24 11:30:44;;;;;;;5.32;3.45;;;19.20;54.20;;;;;;6250905;28;20473;-68
2023/02/24 11:33:50;;;;;;;5.05;3.00;;;19.20;53.60;;;;;;6256295;28;20043;-68
2023/02/24 11:37:07;;;;;;;5.22;3.20;;;19.20;53.50;;;;;;6268645;28;20021;-68
2023/02/24 11:40:18;;;;;;;5.38;2.83;;;19.20;53.50;;;;;;6269054;28;20064;-68
2023/02/24 11:43:25;;;;;;;4.82;2.97;;;19.20;53.60;;;;;;6273602;28;20445;-67
2023/02/24 11:47:01;;;;;;;4.97;2.88;;;19.20;53.50;;;;;;6272560;28;20048;-68
2023/02/24 11:50:22;;;;;;;;;;;19.20;53.50;;;;;;6271799;28;20033;-68
2023/02/24 11:53:37;;;;;;;5.65;3.08;;;19.20;53.50;;;;;;6280004;28;19909;-68
2023/02/24 11:57:11;;;;;;;4.22;2.78;;;19.20;53.60;;;;;;6273317;28;20493;-67
2023/02/24 12:00:19;;;;;;;5.03;3.22;;;19.20;53.60;;;;;;6285284;28;20051;-68
2023/02/24 12:03:50;;;;;;;5.07;2.70;;;19.20;53.50;;;;;;6286192;28;20035;-68
2023/02/24 12:07:06;;;;;;;5.28;2.50;;;19.20;53.50;;;;;;6273163;28;20060;-68
2023/02/24 12:10:16;;;;;;;4.18;2.50;;;19.20;53.50;;;;;;6272816;28;20575;-68
2023/02/24 12:13:35;;;;;;;5.13;2.50;;;19.20;53.50;;;;;;6279231;28;20017;-67
2023/02/24 12:16:44;;;;;;;5.82;3.10;;;19.20;53.50;;;;;;6270341;28;20025;-68
2023/02/24 12:19:50;;;;;;;4.22;2.50;;;19.20;53.50;;;;;;6277589;28;20041;-68
2023/02/24 12:23:14;;;;;;;3.92;2.58;;;19.20;53.50;;;;;;6258616;28;20034;-68
2023/02/24 12:26:38;;;;;;;3.75;2.40;;;19.20;53.50;;;;;;6244120;28;20025;-68
2023/02/24 12:30:05;;;;;;;3.95;2.10;;;19.20;53.50;;;;;;6274403;28;20032;-67
2023/02/24 12:33:17;;;;;;;3.60;2.22;;;19.20;53.40;;;;;;6277507;28;20107;-68
2023/02/24 12:36:30;;;;;;;3.25;2.28;;;19.20;53.50;;;;;;6244015;28;20025;-67
2023/02/24 12:39:47;;;;;;;2.85;2.20;;;19.20;53.50;;;;;;6272741;28;20378;-67
2023/02/24 12:43:17;;;;;;;3.17;2.10;;;19.20;53.50;;;;;;6273385;28;20431;-68
2023/02/24 12:46:26;;;;;;;4.00;2.45;;;19.20;53.50;;;;;;6244370;28;20544;-71
2023/02/24 12:49:46;;;;;;;6.28;1.98;;;19.20;53.50;;;;;;6280440;28;20029;-68
2023/02/24 12:53:18;;;;;;;4.07;2.35;;;19.10;52.80;;;;;;6287664;28;20449;-67
2023/02/24 12:56:35;;;;;;;5.07;2.25;;;19.10;52.20;;;;;;6269262;28;20040;-69
2023/02/24 12:59:38;;;;;;;14.25;3.40;;;19.10;52.20;;;;;;6274940;28;20490;-69
2023/02/24 13:02:46;;;;;;;7.38;2.60;;;19.20;50.40;;;;;;6269754;28;20029;-70
2023/02/24 13:06:04;;;;;;;14.77;4.47;;;19.10;51.70;;;;;;6274865;28;20025;-70
2023/02/24 13:09:14;;;;;;;13.18;4.22;;;19.20;52.20;;;;;;6278477;28;20017;-70
2023/02/24 13:12:35;;;;;;;12.20;3.78;;;19.20;51.80;;;;;;6264577;28;20021;-70
2023/02/24 13:15:35;;;;;;;19.58;4.63;;;19.20;52.00;;;;;;6281837;28;20029;-71
2023/02/24 13:18:39;;;;;;;11.18;4.10;;;19.20;52.10;;;;;;6279360;28;20458;-70
2023/02/24 13:21:41;;;;;;;13.10;3.53;;;19.20;52.10;;;;;;6274507;28;20056;-69
2023/02/24 13:24:53;;;;;;;10.35;3.28;;;19.20;52.40;;;;;;6262855;28;20028;-70
2023/02/24 13:27:58;;;;;;;8.02;3.38;;;19.20;52.50;;;;;;6272290;28;20017;-70
2023/02/24 13:31:08;;;;;;;8.90;3.42;;;19.20;52.60;;;;;;6281063;28;20096;-70
2023/02/24 13:34:30;;;;;;;7.53;3.30;;;19.20;52.60;;;;;;6279401;28;20536;-70
2023/02/24 13:37:37;;;;;;;11.68;3.83;;;19.20;52.60;;;;;;6272878;28;20084;-70
2023/02/24 13:40:38;;;;;;;10.68;3.17;;;19.10;52.40;;;;;;6280530;28;20056;-70
2023/02/24 13:43:39;;;;;;;9.18;2.95;;;19.20;52.60;;;;;;6272410;28;20484;-70
2023/02/24 13:46:57;;;;;;;8.80;3.17;;;19.20;52.60;;;;;;6274238;28;20527;-70
2023/02/24 13:50:23;;;;;;;9.82;3.55;;;19.20;52.40;;;;;;6273515;28;20377;-70
2023/02/24 13:53:55;;;;;;;10.70;2.90;;;19.20;52.20;;;;;;6274046;28;20043;-70
2023/02/24 13:57:04;;;;;;;5.05;2.70;;;19.20;52.60;;;;;;6249338;28;20060;-70
2023/02/24 14:00:44;;;;;;;6.53;2.67;;;19.20;52.50;;;;;;6265501;28;20390;-71
2023/02/24 14:04:21;;;;;;;4.75;2.28;;;19.20;52.50;;;;;;6271386;28;20482;-70
2023/02/24 14:07:26;;;;;;;5.55;2.25;;;19.20;52.60;;;;;;6272984;28;20564;-70
2023/02/24 14:10:29;;;;;;;4.40;2.42;;;19.10;52.60;;;;;;6271991;28;20013;-70
2023/02/24 14:13:33;;;;;;;5.47;2.67;;;19.20;52.50;;;;;;6272204;28;20254;-70
2023/02/24 14:16:38;;;;;;;5.93;2.75;;;19.10;52.20;;;;;;6272644;28;20032;-70
2023/02/24 14:19:39;;;;;;;4.93;2.17;;;19.20;52.10;;;;;;6270927;28;20351;-68
2023/02/24 14:22:49;;;;;;;4.57;2.22;;;19.20;52.10;;;;;;6270097;28;20032;-70
2023/02/24 14:25:53;;;;;;;6.70;2.80;;;19.10;52.20;;;;;;6287479;28;20024;-69
2023/02/24 14:28:59;;;;;;;3.78;1.88;;;19.20;52.10;;;;;;6295700;28;20432;-68
2023/02/24 14:32:00;;;;;;;6.30;2.25;;;19.20;51.90;;;;;;6271975;28;20029;-67
2023/02/24 14:35:02;;;;;;;5.15;2.30;;;19.20;52.10;;;;;;6277264;28;20035;-69
2023/02/24 14:38:04;;;;;;;3.97;1.98;;;19.20;52.10;;;;;;6272267;28;20021;-72
2023/02/24 14:41:19;;;;;;;5.45;2.10;;;19.20;52.10;;;;;;6285410;28;20090;-72
2023/02/24 14:44:26;;;;;;;4.70;2.33;;;19.20;52.10;;;;;;6295594;28;20407;-69
2023/02/24 14:47:27;;;;;;;8.10;2.40;;;19.20;52.60;;;;;;6295951;28;20285;-70
2023/02/24 14:50:33;;;;;;;4.85;2.00;;;19.20;52.30;;;;;;6279928;28;20098;-69
2023/02/24 14:53:38;;;;;;;5.15;1.95;;;19.10;51.80;;;;;;6286223;28;20031;-69
2023/02/24 14:56:40;;;;;;;;;;;19.20;51.70;;;;;;6277865;28;20025;-69
2023/02/24 14:59:45;;;;;;;6.03;2.10;;;19.20;51.10;;;;;;6270147;28;19976;-69
2023/02/24 15:02:49;;;;;;;3.63;1.80;;;19.10;51.20;;;;;;6269976;28;20033;-69
2023/02/24 15:05:54;;;;;;;7.90;2.05;;;19.20;51.50;;;;;;6257625;28;20029;-69
2023/02/24 15:09:06;;;;;;;6.03;2.13;;;19.20;51.70;;;;;;6292317;28;20024;-69
2023/02/24 15:12:22;;;;;;;5.07;1.92;;;19.20;51.70;;;;;;6275262;28;20033;-69
2023/02/24 15:15:26;;;;;;;4.72;2.13;;;19.20;51.90;;;;;;6271150;28;20405;-70
2023/02/24 15:18:28;;;;;;;7.88;1.90;;;19.20;52.00;;;;;;6271152;28;20029;-71
2023/02/24 15:21:32;;;;;;;2.60;1.42;;;19.20;51.80;;;;;;6269634;28;20063;-69
2023/02/24 15:24:34;;;;;;;8.15;2.00;;;19.10;51.70;;;;;;6246230;28;20031;-70
2023/02/24 15:27:34;;;;;;;2.85;1.73;;;19.20;52.00;;;;;;6287665;28;20044;-69
2023/02/24 15:30:38;;;;;;;4.38;1.60;;;19.20;52.10;;;;;;6293242;28;20021;-70
2023/02/24 15:33:43;;;;;;;3.72;1.90;;;19.20;52.10;;;;;;6293197;28;20768;-69
2023/02/24 15:36:43;;;;;;;4.67;1.50;;;19.20;52.20;;;;;;6275269;28;20032;-70
2023/02/24 15:39:44;;;;;;;4.80;1.30;;;19.20;52.10;;;;;;6268676;28;20505;-69
2023/02/24 15:42:55;;;;;;;2.65;1.27;;;19.10;52.20;;;;;;6267411;28;20067;-69
2023/02/24 15:45:55;;;;;;;2.38;1.45;;;19.10;52.20;;;;;;6270488;28;20021;-69
2023/02/24 15:49:01;;;;;;;3.83;1.70;;;19.20;52.40;;;;;;6271705;28;20060;-69
2023/02/24 15:52:04;;;;;;;3.22;1.40;;;19.20;52.40;;;;;;6280869;28;20017;-70
2023/02/24 15:55:05;;;;;;;2.38;1.40;;;19.20;52.30;;;;;;6291754;28;20020;-70
2023/02/24 15:58:21;;;;;;;3.83;1.63;;;19.20;52.40;;;;;;6270478;28;20075;-70
2023/02/24 16:01:21;;;;;;;;;;;19.20;52.30;;;;;;6269657;28;20387;-70
2023/02/24 16:04:37;;;;;;;2.50;1.35;;;19.20;52.20;;;;;;6269019;28;19909;-73
2023/02/24 16:07:41;;;;;;;3.10;1.52;;;19.10;52.30;;;;;;6281343;28;20097;-73
2023/02/24 16:10:58;;;;;;;1.42;0.90;;;19.10;52.10;;;;;;6247238;28;20025;-70
2023/02/24 16:14:01;;;;;;;2.92;1.30;;;19.20;52.20;;;;;;6269882;28;20032;-71
2023/02/24 16:17:13;;;;;;;3.28;1.15;;;19.20;52.30;;;;;;6270399;28;20025;-72
2023/02/24 16:20:30;;;;;;;2.80;1.30;;;19.10;51.60;;;;;;6272324;28;20063;-72
2023/02/24 16:23:39;;;;;;;2.67;1.15;;;19.10;51.90;;;;;;6280272;28;20033;-71
2023/02/24 16:26:42;;;;;;;3.92;1.05;;;19.20;51.80;;;;;;6275826;28;20554;-73
2023/02/24 16:29:45;;;;;;;6.82;1.67;;;19.20;52.10;;;;;;6268374;28;20486;-71
2023/02/24 16:32:48;;;;;;;8.20;1.13;;;19.20;52.10;;;;;;6275642;28;20024;-73